createdAt,value
2023-05-10T00:00:46.296Z,18.9907
2023-05-10T00:01:47.490Z,19.0079
2023-05-10T00:02:49.952Z,18.9679
2023-05-10T00:03:52.224Z,18.9905
2023-05-10T00:04:54.420Z,18.9943
2023-05-10T00:05:56.793Z,19.0040
2023-05-10T00:06:59.597Z,19.0229
2023-05-10T00:08:01.499Z,19.1009
2023-05-10T00:09:03.820Z,19.0427
2023-05-10T00:10:06.089Z,18.9499
2023-05-10T00:11:09.711Z,18.8715
2023-05-10T00:12:11.045Z,18.8537
2023-05-10T00:13:13.570Z,18.8626
2023-05-10T00:14:17.253Z,18.8444
2023-05-10T00:15:17.855Z,18.7635
2023-05-10T00:16:20.106Z,18.7546
2023-05-10T00:17:22.412Z,18.8131
2023-05-10T00:18:24.800Z,18.8413
2023-05-10T00:19:27.666Z,18.8467
2023-05-10T00:20:30.136Z,18.8857
2023-05-10T00:21:31.810Z,18.8622
2023-05-10T00:22:36.195Z,18.8888
2023-05-10T00:23:36.628Z,18.9254
2023-05-10T00:24:39.966Z,19.0082
2023-05-10T00:25:41.967Z,18.9347
2023-05-10T00:26:44.138Z,18.8253
2023-05-10T00:27:46.690Z,18.8982
2023-05-10T00:28:48.322Z,18.8714
2023-05-10T00:29:50.438Z,18.8647
2023-05-10T00:30:54.914Z,18.8370
2023-05-10T00:31:56.611Z,18.7250
2023-05-10T00:32:57.652Z,18.6588
2023-05-10T00:33:59.963Z,18.7384
2023-05-10T00:35:04.432Z,18.8255
2023-05-10T00:36:05.342Z,18.9125
2023-05-10T00:37:07.565Z,18.9103
2023-05-10T00:38:09.678Z,18.9391
2023-05-10T00:39:11.802Z,18.9668
2023-05-10T00:40:14.420Z,19.0378
2023-05-10T00:41:16.149Z,19.0805
2023-05-10T00:42:18.905Z,19.0159
2023-05-10T00:43:21.145Z,19.0296
2023-05-10T00:44:23.122Z,19.0924
2023-05-10T00:45:26.871Z,19.1400
2023-05-10T00:46:28.222Z,19.1442
2023-05-10T00:47:30.965Z,19.1661
2023-05-10T00:48:33.658Z,19.1374
2023-05-10T00:49:35.036Z,19.1410
2023-05-10T00:50:37.152Z,19.0571
2023-05-10T00:51:39.642Z,19.0424
2023-05-10T00:52:42.715Z,18.9475
2023-05-10T00:53:44.580Z,18.8238
2023-05-10T00:54:46.478Z,18.7685
2023-05-10T00:55:48.829Z,18.7788
2023-05-10T00:56:51.391Z,18.8108
2023-05-10T00:57:54.598Z,18.8631
2023-05-10T00:58:56.640Z,18.8940
2023-05-10T00:59:58.149Z,18.9793
2023-05-10T01:01:01.205Z,19.0181
2023-05-10T01:02:02.944Z,19.0416
2023-05-10T01:03:05.390Z,19.0335
2023-05-10T01:04:07.718Z,19.0764
2023-05-10T01:05:10.128Z,19.1240
2023-05-10T01:06:12.954Z,19.1279
2023-05-10T01:07:16.182Z,19.1326
2023-05-10T01:08:17.959Z,19.0583
2023-05-10T01:09:19.238Z,18.9573
2023-05-10T01:10:21.610Z,19.0214
2023-05-10T01:11:23.882Z,18.9431
2023-05-10T01:12:26.419Z,18.9247
2023-05-10T01:13:29.109Z,18.9286
2023-05-10T01:14:31.319Z,18.9563
2023-05-10T01:15:33.219Z,19.0231
2023-05-10T01:16:36.691Z,19.0336
2023-05-10T01:17:39.902Z,19.0419
2023-05-10T01:18:40.797Z,19.0705
2023-05-10T01:19:42.656Z,19.0643
2023-05-10T01:20:44.872Z,19.1172
2023-05-10T01:21:48.185Z,19.1562
2023-05-10T01:22:50.151Z,19.1298
2023-05-10T01:23:53.160Z,19.1555
2023-05-10T01:24:54.569Z,19.2007
2023-05-10T01:25:56.593Z,19.1985
2023-05-10T01:26:58.904Z,19.1649
2023-05-10T01:28:01.269Z,19.1675
2023-05-10T01:29:04.385Z,19.2045
2023-05-10T01:30:21.776Z,19.2560
2023-05-10T01:31:08.821Z,19.2836
2023-05-10T01:32:10.718Z,19.2765
2023-05-10T01:33:13.396Z,19.2354
2023-05-10T01:34:15.622Z,19.2367
2023-05-10T01:35:17.804Z,19.2170
2023-05-10T01:36:20.157Z,19.2432
2023-05-10T01:37:22.607Z,19.2826
2023-05-10T01:38:24.768Z,19.2626
2023-05-10T01:39:27.170Z,19.2544
2023-05-10T01:40:29.694Z,19.2829
2023-05-10T01:41:31.665Z,19.2762
2023-05-10T01:42:34.445Z,19.2300
2023-05-10T01:43:36.508Z,19.2265
2023-05-10T01:44:38.973Z,19.3124
2023-05-10T01:45:41.112Z,19.3524
2023-05-10T01:46:43.451Z,19.3218
2023-05-10T01:47:46.029Z,19.2638
2023-05-10T01:48:48.019Z,19.2889
2023-05-10T01:49:50.453Z,19.2601
2023-05-10T01:50:52.865Z,19.2937
2023-05-10T01:51:55.018Z,19.2453
2023-05-10T01:52:57.490Z,19.1556
2023-05-10T01:53:59.879Z,19.1212
2023-05-10T01:55:02.114Z,19.1874
2023-05-10T01:56:04.427Z,19.2632
2023-05-10T01:57:07.163Z,19.2414
2023-05-10T01:58:09.109Z,19.2202
2023-05-10T01:59:12.134Z,19.2106
2023-05-10T02:00:14.702Z,19.1689
2023-05-10T02:01:16.387Z,19.0768
2023-05-10T02:02:18.519Z,19.0338
2023-05-10T02:03:20.798Z,18.9603
2023-05-10T02:04:23.075Z,18.8976
2023-05-10T02:05:25.408Z,18.8782
2023-05-10T02:06:27.765Z,18.9316
2023-05-10T02:07:31.079Z,18.9782
2023-05-10T02:08:32.426Z,19.0194
2023-05-10T02:09:34.851Z,18.9627
2023-05-10T02:10:37.071Z,18.9052
2023-05-10T02:11:39.618Z,18.9479
2023-05-10T02:12:41.918Z,19.0283
2023-05-10T02:13:44.116Z,19.0354
2023-05-10T02:14:46.382Z,18.9766
2023-05-10T02:15:48.692Z,19.0267
2023-05-10T02:16:51.231Z,19.0284
2023-05-10T02:17:53.382Z,18.9249
2023-05-10T02:18:56.167Z,18.9315
2023-05-10T02:19:58.066Z,18.8952
2023-05-10T02:21:00.356Z,18.9200
2023-05-10T02:22:02.999Z,18.9531
2023-05-10T02:23:05.180Z,18.9362
2023-05-10T02:24:08.302Z,18.9515
2023-05-10T02:25:10.315Z,18.9420
2023-05-10T02:26:12.077Z,18.8950
2023-05-10T02:27:14.511Z,18.8419
2023-05-10T02:28:16.922Z,18.8796
2023-05-10T02:29:19.236Z,18.8845
2023-05-10T02:30:22.022Z,18.9412
2023-05-10T02:31:23.764Z,18.8260
2023-05-10T02:32:26.064Z,18.8520
2023-05-10T02:33:29.124Z,18.8268
2023-05-10T02:34:30.947Z,18.8692
2023-05-10T02:35:33.039Z,18.9177
2023-05-10T02:36:35.825Z,18.9558
2023-05-10T02:37:37.868Z,18.9772
2023-05-10T02:38:40.240Z,18.9592
2023-05-10T02:39:42.673Z,18.9802
2023-05-10T02:40:44.772Z,18.9711
2023-05-10T02:41:47.039Z,18.9016
2023-05-10T02:42:49.973Z,18.9131
2023-05-10T02:43:51.770Z,18.8234
2023-05-10T02:44:54.487Z,18.8245
2023-05-10T02:45:56.406Z,18.8603
2023-05-10T02:46:58.708Z,18.7645
2023-05-10T02:48:01.731Z,18.7385
2023-05-10T02:49:03.695Z,18.7034
2023-05-10T02:50:05.846Z,18.5712
2023-05-10T02:51:08.070Z,18.6212
2023-05-10T02:52:10.609Z,18.6055
2023-05-10T02:53:12.762Z,18.5803
2023-05-10T02:54:15.826Z,18.5929
2023-05-10T02:55:18.239Z,18.6077
2023-05-10T02:56:19.835Z,18.6183
2023-05-10T02:57:22.623Z,18.6843
2023-05-10T02:58:24.672Z,18.7244
2023-05-10T02:59:26.942Z,18.6591
2023-05-10T03:00:29.155Z,18.7153
2023-05-10T03:01:31.581Z,18.7222
2023-05-10T03:02:34.079Z,18.7157
2023-05-10T03:03:36.137Z,18.7443
2023-05-10T03:04:39.229Z,18.7002
2023-05-10T03:05:40.781Z,18.5754
2023-05-10T03:06:43.557Z,18.4376
2023-05-10T03:07:45.448Z,18.4502
2023-05-10T03:08:48.666Z,18.4683
2023-05-10T03:09:50.287Z,18.4828
2023-05-10T03:10:52.854Z,18.5370
2023-05-10T03:11:55.248Z,18.5470
2023-05-10T03:12:57.798Z,18.6011
2023-05-10T03:13:59.596Z,18.6655
2023-05-10T03:15:01.825Z,18.5771
2023-05-10T03:16:04.316Z,18.2994
2023-05-10T03:17:06.444Z,18.2432
2023-05-10T03:18:08.924Z,18.2122
2023-05-10T03:19:11.122Z,18.1641
2023-05-10T03:20:13.509Z,18.1399
2023-05-10T03:21:15.860Z,18.1662
2023-05-10T03:22:18.136Z,17.9631
2023-05-10T03:23:20.459Z,17.9630
2023-05-10T03:24:22.898Z,18.0057
2023-05-10T03:25:25.733Z,17.9621
2023-05-10T03:26:27.619Z,17.9519
2023-05-10T03:27:29.973Z,17.8096
2023-05-10T03:28:32.882Z,17.7020
2023-05-10T03:29:35.551Z,17.5160
2023-05-10T03:30:37.367Z,17.5369
2023-05-10T03:31:40.340Z,17.3994
2023-05-10T03:32:42.155Z,17.2337
2023-05-10T03:33:43.807Z,17.3877
2023-05-10T03:34:47.098Z,17.4009
2023-05-10T03:35:48.483Z,17.3764
2023-05-10T03:36:51.341Z,17.4333
2023-05-10T03:37:53.944Z,17.5607
2023-05-10T03:38:55.797Z,17.6348
2023-05-10T03:39:57.824Z,17.7110
2023-05-10T03:41:00.366Z,17.7955
2023-05-10T03:42:04.184Z,17.8703
2023-05-10T03:43:04.881Z,17.8705
2023-05-10T03:44:08.480Z,17.7137
2023-05-10T03:45:09.514Z,17.6562
2023-05-10T03:46:12.473Z,17.6920
2023-05-10T03:47:14.172Z,17.8145
2023-05-10T03:48:16.553Z,17.8611
2023-05-10T03:49:18.866Z,17.9685
2023-05-10T03:50:21.354Z,18.0407
2023-05-10T03:51:23.514Z,18.0728
2023-05-10T03:52:25.995Z,18.1525
2023-05-10T03:53:28.246Z,18.1788
2023-05-10T03:54:30.537Z,18.1920
2023-05-10T03:55:32.870Z,18.2543
2023-05-10T03:56:35.421Z,18.3493
2023-05-10T03:57:37.722Z,18.3619
2023-05-10T03:58:40.316Z,18.3386
2023-05-10T03:59:42.221Z,18.3900
2023-05-10T04:00:46.202Z,18.4001
2023-05-10T04:01:47.889Z,18.3583
2023-05-10T04:02:49.946Z,18.3969
2023-05-10T04:03:51.701Z,18.3919
2023-05-10T04:04:54.878Z,18.2000
2023-05-10T04:05:56.245Z,17.9447
2023-05-10T04:06:59.647Z,17.9628
2023-05-10T04:08:00.914Z,17.9787
2023-05-10T04:09:04.193Z,17.9095
2023-05-10T04:10:05.589Z,17.8803
2023-05-10T04:11:07.908Z,17.9243
2023-05-10T04:12:11.143Z,17.9645
2023-05-10T04:13:13.542Z,18.0337
2023-05-10T04:14:14.910Z,18.0651
2023-05-10T04:15:17.308Z,18.0319
2023-05-10T04:16:19.679Z,18.0002
2023-05-10T04:17:21.958Z,18.0043
2023-05-10T04:18:24.269Z,18.1155
2023-05-10T04:19:27.583Z,18.1891
2023-05-10T04:20:29.092Z,18.1744
2023-05-10T04:21:31.396Z,18.2063
2023-05-10T04:22:33.588Z,18.2405
2023-05-10T04:23:35.949Z,18.2861
2023-05-10T04:24:38.277Z,18.3419
2023-05-10T04:25:40.594Z,18.3241
2023-05-10T04:26:42.923Z,18.3297
2023-05-10T04:27:45.263Z,18.1604
2023-05-10T04:28:47.684Z,17.9901
2023-05-10T04:29:49.977Z,17.9748
2023-05-10T04:30:52.408Z,17.9921
2023-05-10T04:31:54.780Z,18.0172
2023-05-10T04:32:58.174Z,17.9677
2023-05-10T04:33:59.347Z,17.6917
2023-05-10T04:35:02.664Z,17.3224
2023-05-10T04:36:04.145Z,17.0616
2023-05-10T04:37:06.295Z,16.9562
2023-05-10T04:38:11.568Z,16.8040
2023-05-10T04:39:10.950Z,16.6551
2023-05-10T04:40:13.295Z,16.5437
2023-05-10T04:41:16.074Z,16.2843
2023-05-10T04:42:18.882Z,16.2634
2023-05-10T04:43:20.572Z,16.2881
2023-05-10T04:44:22.631Z,16.2327
2023-05-10T04:45:24.966Z,16.0708
2023-05-10T04:46:27.381Z,15.8705
2023-05-10T04:47:29.622Z,15.7356
2023-05-10T04:48:32.386Z,15.8562
2023-05-10T04:49:34.310Z,15.8922
2023-05-10T04:50:36.578Z,15.8754
2023-05-10T04:51:38.978Z,15.9288
2023-05-10T04:52:41.354Z,16.0777
2023-05-10T04:53:48.586Z,16.1369
2023-05-10T04:54:45.906Z,16.2174
2023-05-10T04:55:48.256Z,16.2931
2023-05-10T04:56:50.566Z,16.1039
2023-05-10T04:57:52.915Z,15.9992
2023-05-10T04:58:55.296Z,16.1185
2023-05-10T04:59:57.582Z,16.2853
2023-05-10T05:00:59.892Z,16.4330
2023-05-10T05:02:02.308Z,16.5248
2023-05-10T05:03:04.606Z,16.5591
2023-05-10T05:04:06.898Z,16.6513
2023-05-10T05:05:09.248Z,16.7655
2023-05-10T05:06:11.601Z,16.8665
2023-05-10T05:07:23.123Z,16.9301
2023-05-10T05:08:16.228Z,16.8435
2023-05-10T05:09:18.565Z,16.7576
2023-05-10T05:10:20.849Z,16.8166
2023-05-10T05:11:23.180Z,16.8393
2023-05-10T05:12:25.534Z,16.8634
2023-05-10T05:13:27.900Z,16.8632
2023-05-10T05:14:30.179Z,16.7807
2023-05-10T05:15:32.550Z,16.8302
2023-05-10T05:16:35.031Z,16.9089
2023-05-10T05:17:37.184Z,16.9846
2023-05-10T05:18:39.526Z,16.9290
2023-05-10T05:19:41.841Z,16.7282
2023-05-10T05:20:44.151Z,16.6928
2023-05-10T05:21:46.518Z,16.7963
2023-05-10T05:22:48.810Z,16.8234
2023-05-10T05:23:51.156Z,16.8958
2023-05-10T05:24:53.480Z,17.0122
2023-05-10T05:25:55.832Z,17.1099
2023-05-10T05:26:58.170Z,17.2385
2023-05-10T05:28:00.541Z,17.3136
2023-05-10T05:29:02.815Z,17.2030
2023-05-10T05:30:05.166Z,17.1693
2023-05-10T05:31:07.585Z,17.2754
2023-05-10T05:32:09.911Z,17.3345
2023-05-10T05:33:12.162Z,17.4088
2023-05-10T05:34:14.624Z,17.4507
2023-05-10T05:35:17.116Z,17.4621
2023-05-10T05:36:19.206Z,17.4581
2023-05-10T05:37:21.548Z,17.4948
2023-05-10T05:38:23.865Z,17.5068
2023-05-10T05:39:26.190Z,17.5513
2023-05-10T05:40:28.533Z,17.5534
2023-05-10T05:41:30.866Z,17.4062
2023-05-10T05:42:33.213Z,17.4051
2023-05-10T05:43:38.028Z,17.3875
2023-05-10T05:44:37.882Z,17.4164
2023-05-10T05:45:40.216Z,17.2241
2023-05-10T05:46:42.577Z,17.1899
2023-05-10T05:47:44.992Z,17.2095
2023-05-10T05:48:47.216Z,17.2539
2023-05-10T05:49:49.808Z,17.2508
2023-05-10T05:50:51.859Z,17.3119
2023-05-10T05:51:54.481Z,17.3624
2023-05-10T05:52:56.558Z,17.4420
2023-05-10T05:53:59.322Z,17.4603
2023-05-10T05:55:01.294Z,17.5131
2023-05-10T05:56:03.515Z,17.5751
2023-05-10T05:57:06.146Z,17.6259
2023-05-10T05:58:08.192Z,17.5223
2023-05-10T05:59:11.141Z,17.3813
2023-05-10T06:00:12.844Z,17.4736
2023-05-10T06:01:15.192Z,17.6183
2023-05-10T06:02:17.585Z,17.6815
2023-05-10T06:03:20.014Z,17.6911
2023-05-10T06:04:22.257Z,17.6827
2023-05-10T06:05:24.527Z,17.6916
2023-05-10T06:06:26.937Z,17.7262
2023-05-10T06:07:29.276Z,17.7557
2023-05-10T06:08:31.765Z,17.8439
2023-05-10T06:09:33.868Z,17.9310
2023-05-10T06:10:36.202Z,17.9369
2023-05-10T06:11:38.676Z,17.9420
2023-05-10T06:12:41.106Z,17.8911
2023-05-10T06:13:43.257Z,17.8301
2023-05-10T06:14:45.614Z,17.9012
2023-05-10T06:15:47.894Z,17.9103
2023-05-10T06:16:50.394Z,17.8998
2023-05-10T06:17:52.585Z,17.8843
2023-05-10T06:18:54.885Z,17.9202
2023-05-10T06:19:57.259Z,17.8839
2023-05-10T06:20:59.619Z,17.8647
2023-05-10T06:22:01.990Z,17.9269
2023-05-10T06:23:04.259Z,18.0082
2023-05-10T06:24:06.604Z,18.0281
2023-05-10T06:25:09.107Z,18.0666
2023-05-10T06:26:11.212Z,18.0743
2023-05-10T06:27:13.633Z,18.1140
2023-05-10T06:28:16.005Z,18.1861
2023-05-10T06:29:18.238Z,18.1799
2023-05-10T06:30:20.561Z,18.0537
2023-05-10T06:31:22.974Z,17.9630
2023-05-10T06:32:25.269Z,17.8938
2023-05-10T06:33:27.540Z,17.9034
2023-05-10T06:34:29.892Z,17.9337
2023-05-10T06:35:32.208Z,17.8987
2023-05-10T06:36:34.569Z,17.9253
2023-05-10T06:37:36.891Z,17.9561
2023-05-10T06:38:39.205Z,18.0265
2023-05-10T06:39:41.543Z,18.0901
2023-05-10T06:40:46.196Z,18.1592
2023-05-10T06:41:47.255Z,18.2143
2023-05-10T06:42:48.563Z,18.2391
2023-05-10T06:43:50.888Z,18.3275
2023-05-10T06:44:53.217Z,18.3749
2023-05-10T06:45:55.587Z,18.3978
2023-05-10T06:46:57.884Z,18.4541
2023-05-10T06:48:00.333Z,18.5362
2023-05-10T06:49:02.551Z,18.4711
2023-05-10T06:50:04.896Z,18.5536
2023-05-10T06:51:07.237Z,18.4761
2023-05-10T06:52:09.561Z,18.4564
2023-05-10T06:53:11.918Z,18.5200
2023-05-10T06:54:14.236Z,18.5856
2023-05-10T06:55:16.711Z,18.6064
2023-05-10T06:56:18.942Z,18.6765
2023-05-10T06:57:31.435Z,18.7201
2023-05-10T06:58:23.574Z,18.6234
2023-05-10T06:59:25.969Z,18.5450
2023-05-10T07:00:28.270Z,18.5046
2023-05-10T07:01:30.667Z,18.5580
2023-05-10T07:02:32.959Z,18.5293
2023-05-10T07:03:35.275Z,18.4622
2023-05-10T07:04:37.625Z,18.4774
2023-05-10T07:05:39.964Z,18.4676
2023-05-10T07:06:42.299Z,18.4147
2023-05-10T07:07:44.609Z,18.4067
2023-05-10T07:08:46.934Z,18.4081
2023-05-10T07:09:49.262Z,18.4061
2023-05-10T07:10:51.616Z,18.3419
2023-05-10T07:11:53.962Z,18.3558
2023-05-10T07:12:56.358Z,18.4025
2023-05-10T07:13:58.595Z,18.4859
2023-05-10T07:15:01.016Z,18.5514
2023-05-10T07:16:03.696Z,18.5621
2023-05-10T07:17:05.686Z,18.5825
2023-05-10T07:18:08.047Z,18.5629
2023-05-10T07:19:10.286Z,18.5658
2023-05-10T07:20:12.591Z,18.6486
2023-05-10T07:21:15.203Z,18.6649
2023-05-10T07:22:17.285Z,18.6787
2023-05-10T07:23:19.795Z,18.6937
2023-05-10T07:24:21.934Z,18.7130
2023-05-10T07:25:24.633Z,18.6525
2023-05-10T07:26:26.602Z,18.5168
2023-05-10T07:27:28.973Z,18.4631
2023-05-10T07:28:31.296Z,18.5486
2023-05-10T07:29:33.602Z,18.6298
2023-05-10T07:30:36.272Z,18.6894
2023-05-10T07:31:38.352Z,18.7150
2023-05-10T07:32:40.759Z,18.7565
2023-05-10T07:33:43.047Z,18.7439
2023-05-10T07:34:45.476Z,18.7498
2023-05-10T07:35:47.608Z,18.7929
2023-05-10T07:36:50.180Z,18.7440
2023-05-10T07:37:52.270Z,18.6764
2023-05-10T07:38:54.723Z,18.6314
2023-05-10T07:39:56.963Z,18.4929
2023-05-10T07:40:59.589Z,18.3862
2023-05-10T07:42:01.616Z,18.3479
2023-05-10T07:43:05.336Z,18.3520
2023-05-10T07:44:06.378Z,18.3524
2023-05-10T07:45:08.605Z,18.3558
2023-05-10T07:46:11.461Z,18.3367
2023-05-10T07:47:13.395Z,18.2690
2023-05-10T07:48:15.740Z,18.3296
2023-05-10T07:49:18.024Z,18.2703
2023-05-10T07:50:20.309Z,18.2622
2023-05-10T07:51:22.670Z,18.3018
2023-05-10T07:52:25.003Z,18.2826
2023-05-10T07:53:27.321Z,18.3215
2023-05-10T07:54:29.675Z,18.2869
2023-05-10T07:55:32.011Z,18.2421
2023-05-10T07:56:34.414Z,18.1874
2023-05-10T07:57:36.704Z,18.0583
2023-05-10T07:58:39.018Z,17.9741
2023-05-10T07:59:41.352Z,17.9702
2023-05-10T08:00:43.678Z,18.0152
2023-05-10T08:01:46.040Z,17.9956
2023-05-10T08:02:48.440Z,18.0562
2023-05-10T08:03:50.749Z,18.1317
2023-05-10T08:04:52.996Z,18.1083
2023-05-10T08:05:55.312Z,17.9938
2023-05-10T08:06:57.659Z,17.8806
2023-05-10T08:08:00.064Z,17.8427
2023-05-10T08:09:02.415Z,17.9060
2023-05-10T08:10:05.410Z,17.8944
2023-05-10T08:11:06.967Z,17.8937
2023-05-10T08:12:09.620Z,17.8295
2023-05-10T08:13:11.676Z,17.8850
2023-05-10T08:14:13.986Z,17.9057
2023-05-10T08:15:16.553Z,17.9077
2023-05-10T08:16:18.730Z,17.7920
2023-05-10T08:17:22.100Z,17.7069
2023-05-10T08:18:23.376Z,17.6276
2023-05-10T08:19:25.633Z,17.4762
2023-05-10T08:20:27.971Z,17.3848
2023-05-10T08:21:30.307Z,17.4325
2023-05-10T08:22:32.640Z,17.6034
2023-05-10T08:23:34.993Z,17.6877
2023-05-10T08:24:37.315Z,17.6302
2023-05-10T08:25:39.638Z,17.6854
2023-05-10T08:26:41.950Z,17.7865
2023-05-10T08:27:44.298Z,17.8493
2023-05-10T08:28:46.632Z,17.9416
2023-05-10T08:29:50.462Z,17.9396
2023-05-10T08:30:51.265Z,18.0595
2023-05-10T08:31:53.688Z,18.0603
2023-05-10T08:32:55.970Z,18.0764
2023-05-10T08:33:58.360Z,18.1256
2023-05-10T08:35:00.608Z,18.1020
2023-05-10T08:36:02.947Z,18.1267
2023-05-10T08:37:05.265Z,18.2504
2023-05-10T08:38:07.588Z,18.2676
2023-05-10T08:39:22.837Z,18.2852
2023-05-10T08:40:12.275Z,18.3726
2023-05-10T08:41:14.585Z,18.3940
2023-05-10T08:42:16.925Z,18.4058
2023-05-10T08:43:19.295Z,18.4314
2023-05-10T08:44:21.642Z,18.4171
2023-05-10T08:45:23.941Z,18.4708
2023-05-10T08:46:26.341Z,18.5550
2023-05-10T08:47:28.624Z,18.5705
2023-05-10T08:48:30.918Z,18.5231
2023-05-10T08:49:33.308Z,18.4951
2023-05-10T08:50:35.595Z,18.3842
2023-05-10T08:51:37.910Z,18.3410
2023-05-10T08:52:40.249Z,18.3302
2023-05-10T08:53:42.573Z,18.4272
2023-05-10T08:54:44.953Z,18.4506
2023-05-10T08:55:47.230Z,18.5814
2023-05-10T08:56:49.982Z,18.6485
2023-05-10T08:57:51.902Z,18.7227
2023-05-10T08:58:54.365Z,18.7208
2023-05-10T08:59:56.652Z,18.7420
2023-05-10T09:00:58.937Z,18.7208
2023-05-10T09:02:01.244Z,18.6804
2023-05-10T09:03:03.633Z,18.6443
2023-05-10T09:04:05.981Z,18.6183
2023-05-10T09:05:08.395Z,18.6200
2023-05-10T09:06:10.756Z,18.6546
2023-05-10T09:07:12.973Z,18.6901
2023-05-10T09:08:15.249Z,18.7417
2023-05-10T09:09:17.555Z,18.7281
2023-05-10T09:10:19.989Z,18.7232
2023-05-10T09:11:22.238Z,18.7353
2023-05-10T09:12:25.774Z,18.7264
2023-05-10T09:13:26.966Z,18.7670
2023-05-10T09:14:29.261Z,18.8451
2023-05-10T09:15:31.571Z,18.7916
2023-05-10T09:16:34.245Z,18.6293
2023-05-10T09:17:36.586Z,18.4095
2023-05-10T09:18:38.688Z,18.4412
2023-05-10T09:19:41.683Z,18.4734
2023-05-10T09:20:43.322Z,18.5724
2023-05-10T09:21:46.024Z,18.6226
2023-05-10T09:22:47.940Z,18.5637
2023-05-10T09:23:50.821Z,18.5620
2023-05-10T09:24:52.674Z,18.6425
2023-05-10T09:25:55.032Z,18.7170
2023-05-10T09:26:57.303Z,18.7929
2023-05-10T09:27:59.567Z,18.8313
2023-05-10T09:29:01.888Z,18.8536
2023-05-10T09:30:04.271Z,18.9007
2023-05-10T09:31:06.728Z,18.9799
2023-05-10T09:32:08.928Z,18.9467
2023-05-10T09:33:12.142Z,18.9297
2023-05-10T09:34:13.640Z,18.9642
2023-05-10T09:35:16.289Z,18.9837
2023-05-10T09:36:18.247Z,18.9941
2023-05-10T09:37:20.595Z,18.9722
2023-05-10T09:38:22.937Z,18.9621
2023-05-10T09:39:25.232Z,19.0537
2023-05-10T09:40:28.572Z,19.1493
2023-05-10T09:41:30.124Z,19.1404
2023-05-10T09:42:32.296Z,19.1051
2023-05-10T09:43:34.636Z,19.0296
2023-05-10T09:44:37.021Z,18.9803
2023-05-10T09:45:39.441Z,18.9689
2023-05-10T09:46:41.806Z,18.9548
2023-05-10T09:47:44.625Z,18.9529
2023-05-10T09:48:46.314Z,18.9237
2023-05-10T09:49:48.875Z,18.9614
2023-05-10T09:50:51.065Z,18.9664
2023-05-10T09:51:53.483Z,18.8389
2023-05-10T09:52:55.825Z,18.7378
2023-05-10T09:53:57.988Z,18.7373
2023-05-10T09:55:00.414Z,18.8272
2023-05-10T09:56:02.827Z,18.9034
2023-05-10T09:57:05.000Z,18.9879
2023-05-10T09:58:07.449Z,19.0332
2023-05-10T09:59:09.678Z,19.0906
2023-05-10T10:00:12.070Z,19.1473
2023-05-10T10:01:14.346Z,19.0954
2023-05-10T10:02:17.973Z,19.1483
2023-05-10T10:03:19.588Z,19.2135
2023-05-10T10:04:21.406Z,19.2471
2023-05-10T10:05:23.922Z,19.2538
2023-05-10T10:06:30.068Z,19.2902
2023-05-10T10:07:28.456Z,19.3079
2023-05-10T10:08:30.823Z,19.3288
2023-05-10T10:09:33.117Z,19.4053
2023-05-10T10:10:35.446Z,19.4453
2023-05-10T10:11:37.692Z,19.4426
2023-05-10T10:12:40.286Z,19.4982
2023-05-10T10:13:42.508Z,19.4993
2023-05-10T10:14:44.848Z,19.5055
2023-05-10T10:15:47.899Z,19.4909
2023-05-10T10:17:05.873Z,19.4952
2023-05-10T10:17:51.793Z,19.4725
2023-05-10T10:18:54.107Z,19.4193
2023-05-10T10:19:56.434Z,19.4556
2023-05-10T10:20:58.722Z,19.4493
2023-05-10T10:22:01.459Z,19.4736
2023-05-10T10:23:03.399Z,19.4571
2023-05-10T10:24:05.804Z,19.4702
2023-05-10T10:25:08.089Z,19.4599
2023-05-10T10:26:10.429Z,19.4369
2023-05-10T10:27:12.759Z,19.3822
2023-05-10T10:28:15.151Z,19.3918
2023-05-10T10:29:17.438Z,19.3656
2023-05-10T10:30:19.840Z,19.3311
2023-05-10T10:31:22.337Z,19.3176
2023-05-10T10:32:24.583Z,19.3602
2023-05-10T10:33:28.772Z,19.3792
2023-05-10T10:34:29.194Z,19.3888
2023-05-10T10:35:31.659Z,19.3538
2023-05-10T10:36:33.913Z,19.3476
2023-05-10T10:37:36.311Z,19.3411
2023-05-10T10:38:38.555Z,19.2419
2023-05-10T10:39:40.850Z,19.1486
2023-05-10T10:40:43.178Z,19.1114
2023-05-10T10:41:45.686Z,19.1412
2023-05-10T10:42:48.189Z,19.2409
2023-05-10T10:43:50.777Z,19.3193
2023-05-10T10:44:53.358Z,19.3888
2023-05-10T10:45:54.893Z,19.4368
2023-05-10T10:46:57.330Z,19.4583
2023-05-10T10:48:00.273Z,19.4943
2023-05-10T10:49:01.906Z,19.5309
2023-05-10T10:50:04.233Z,19.5600
2023-05-10T10:51:07.217Z,19.5731
2023-05-10T10:52:08.905Z,19.6573
2023-05-10T10:53:11.342Z,19.6206
2023-05-10T10:54:13.594Z,19.6124
2023-05-10T10:55:16.397Z,19.6680
2023-05-10T10:56:18.263Z,19.7295
2023-05-10T10:57:21.157Z,19.7636
2023-05-10T10:58:22.975Z,19.8665
2023-05-10T10:59:25.308Z,19.9205
2023-05-10T11:00:27.715Z,19.9302
2023-05-10T11:01:29.968Z,19.9507
2023-05-10T11:02:32.653Z,19.9759
2023-05-10T11:03:35.080Z,20.0772
2023-05-10T11:04:37.064Z,20.1341
2023-05-10T11:05:40.109Z,20.1417
2023-05-10T11:06:41.663Z,20.1116
2023-05-10T11:07:44.643Z,20.0803
2023-05-10T11:08:46.340Z,20.0317
2023-05-10T11:09:48.697Z,20.0035
2023-05-10T11:10:51.001Z,19.9670
2023-05-10T11:11:53.596Z,19.8382
2023-05-10T11:12:55.677Z,19.7925
2023-05-10T11:13:58.497Z,19.7104
2023-05-10T11:15:00.352Z,19.6865
2023-05-10T11:16:03.008Z,19.7258
2023-05-10T11:17:05.457Z,19.7595
2023-05-10T11:18:07.764Z,19.8232
2023-05-10T11:19:10.070Z,19.9084
2023-05-10T11:20:12.733Z,19.9562
2023-05-10T11:21:14.366Z,20.0101
2023-05-10T11:22:16.685Z,20.0335
2023-05-10T11:23:19.073Z,19.9784
2023-05-10T11:24:21.449Z,20.0008
2023-05-10T11:25:25.021Z,20.0340
2023-05-10T11:26:27.240Z,19.9557
2023-05-10T11:27:29.030Z,19.9093
2023-05-10T11:28:31.667Z,19.9237
2023-05-10T11:29:33.108Z,19.8845
2023-05-10T11:30:35.420Z,19.8079
2023-05-10T11:31:37.712Z,19.8337
2023-05-10T11:32:40.291Z,19.8719
2023-05-10T11:33:43.524Z,19.8572
2023-05-10T11:34:44.921Z,19.8903
2023-05-10T11:35:47.057Z,20.0001
2023-05-10T11:36:50.036Z,20.0965
2023-05-10T11:37:51.712Z,20.1224
2023-05-10T11:38:54.065Z,20.1537
2023-05-10T11:39:57.582Z,20.2116
2023-05-10T11:40:59.185Z,20.2501
2023-05-10T11:42:01.259Z,20.2772
2023-05-10T11:43:04.096Z,20.2525
2023-05-10T11:44:05.885Z,20.0960
2023-05-10T11:45:08.094Z,20.0226
2023-05-10T11:46:10.600Z,19.9203
2023-05-10T11:47:13.132Z,19.9312
2023-05-10T11:48:15.183Z,19.9613
2023-05-10T11:49:17.436Z,19.9034
2023-05-10T11:50:19.982Z,19.6999
2023-05-10T11:51:22.080Z,19.5509
2023-05-10T11:52:24.973Z,19.4878
2023-05-10T11:53:26.863Z,19.4591
2023-05-10T11:54:30.141Z,19.5287
2023-05-10T11:55:31.457Z,19.4667
2023-05-10T11:56:34.506Z,19.3458
2023-05-10T11:57:36.101Z,19.1607
2023-05-10T11:58:39.183Z,19.1425
2023-05-10T11:59:43.075Z,19.1744
2023-05-10T12:00:43.440Z,19.2451
2023-05-10T12:01:45.457Z,19.3395
2023-05-10T12:02:47.940Z,19.2707
2023-05-10T12:03:50.654Z,19.2184
2023-05-10T12:04:53.145Z,19.1791
2023-05-10T12:05:55.474Z,19.1212
2023-05-10T12:06:57.293Z,18.9464
2023-05-10T12:07:59.479Z,18.8556
2023-05-10T12:09:01.853Z,18.8296
2023-05-10T12:10:04.178Z,18.8560
2023-05-10T12:11:06.557Z,18.7040
2023-05-10T12:12:09.374Z,18.6016
2023-05-10T12:13:11.185Z,18.6609
2023-05-10T12:14:13.531Z,18.6053
2023-05-10T12:15:15.870Z,18.3410
2023-05-10T12:16:18.271Z,18.1435
2023-05-10T12:17:20.531Z,18.1781
2023-05-10T12:18:22.969Z,18.1691
2023-05-10T12:19:25.210Z,18.0282
2023-05-10T12:20:27.572Z,17.8808
2023-05-10T12:21:29.905Z,17.9360
2023-05-10T12:22:32.271Z,17.9034
2023-05-10T12:23:34.659Z,17.7771
2023-05-10T12:24:36.917Z,17.7247
2023-05-10T12:25:39.731Z,17.6427
2023-05-10T12:26:41.954Z,17.6664
2023-05-10T12:27:43.963Z,17.6843
2023-05-10T12:28:46.237Z,17.6623
2023-05-10T12:29:48.572Z,17.5592
2023-05-10T12:30:51.035Z,17.4280
2023-05-10T12:31:53.356Z,17.4502
2023-05-10T12:32:55.726Z,17.4694
2023-05-10T12:33:57.923Z,17.4993